sensor_id;sensor_type;location;lat;lon;timestamp;P1;durP1;ratioP1;P2;durP2;ratioP2
6095;SDS011;25081;42.698;23.298;2022-12-07T00:01:37;28.38;;;18.35;;
6095;SDS011;25081;42.698;23.298;2022-12-07T00:03:47;32.28;;;20.57;;
6095;SDS011;25081;42.698;23.298;2022-12-07T00:05:58;29.77;;;17.10;;
6095;SDS011;25081;42.698;23.298;2022-12-07T00:08:08;34.13;;;20.35;;
6095;SDS011;25081;42.698;23.298;2022-12-07T00:10:19;31.12;;;19.35;;
6095;SDS011;25081;42.698;23.298;2022-12-07T00:12:29;33.40;;;21.15;;
6095;SDS011;25081;42.698;23.298;2022-12-07T00:14:39;37.13;;;20.20;;
6095;SDS011;25081;42.698;23.298;2022-12-07T00:16:50;35.75;;;17.98;;
6095;SDS011;25081;42.698;23.298;2022-12-07T00:19:00;31.17;;;19.23;;
6095;SDS011;25081;42.698;23.298;2022-12-07T00:21:12;32.80;;;20.27;;
6095;SDS011;25081;42.698;23.298;2022-12-07T00:23:21;35.35;;;19.48;;
6095;SDS011;25081;42.698;23.298;2022-12-07T00:25:32;37.90;;;20.05;;
6095;SDS011;25081;42.698;23.298;2022-12-07T00:27:42;33.02;;;19.52;;
6095;SDS011;25081;42.698;23.298;2022-12-07T00:29:53;40.50;;;19.70;;
6095;SDS011;25081;42.698;23.298;2022-12-07T00:32:04;28.23;;;17.70;;
6095;SDS011;25081;42.698;23.298;2022-12-07T00:34:15;32.33;;;17.90;;
6095;SDS011;25081;42.698;23.298;2022-12-07T00:36:25;31.02;;;17.85;;
6095;SDS011;25081;42.698;23.298;2022-12-07T00:38:36;31.90;;;18.27;;
6095;SDS011;25081;42.698;23.298;2022-12-07T00:40:51;31.57;;;19.67;;
6095;SDS011;25081;42.698;23.298;2022-12-07T00:43:05;30.60;;;19.20;;
6095;SDS011;25081;42.698;23.298;2022-12-07T00:45:16;31.93;;;19.20;;
6095;SDS011;25081;42.698;23.298;2022-12-07T00:47:26;28.90;;;16.27;;
6095;SDS011;25081;42.698;23.298;2022-12-07T00:49:36;27.58;;;17.95;;
6095;SDS011;25081;42.698;23.298;2022-12-07T00:51:48;39.18;;;20.97;;
6095;SDS011;25081;42.698;23.298;2022-12-07T00:53:59;39.83;;;19.82;;
6095;SDS011;25081;42.698;23.298;2022-12-07T00:56:11;28.20;;;17.42;;
6095;SDS011;25081;42.698;23.298;2022-12-07T00:58:21;28.50;;;16.60;;
6095;SDS011;25081;42.698;23.298;2022-12-07T01:00:31;28.50;;;16.65;;
6095;SDS011;25081;42.698;23.298;2022-12-07T01:02:42;28.17;;;17.62;;
6095;SDS011;25081;42.698;23.298;2022-12-07T01:04:53;29.90;;;19.17;;
6095;SDS011;25081;42.698;23.298;2022-12-07T01:07:03;33.83;;;18.82;;
6095;SDS011;25081;42.698;23.298;2022-12-07T01:09:14;28.80;;;17.10;;
6095;SDS011;25081;42.698;23.298;2022-12-07T01:11:24;31.52;;;18.67;;
6095;SDS011;25081;42.698;23.298;2022-12-07T01:13:34;34.35;;;19.15;;
6095;SDS011;25081;42.698;23.298;2022-12-07T01:15:45;37.55;;;21.95;;
6095;SDS011;25081;42.698;23.298;2022-12-07T01:17:55;43.35;;;23.77;;
6095;SDS011;25081;42.698;23.298;2022-12-07T01:20:07;39.38;;;21.37;;
6095;SDS011;25081;42.698;23.298;2022-12-07T01:22:18;33.58;;;19.45;;
6095;SDS011;25081;42.698;23.298;2022-12-07T01:24:29;36.50;;;20.72;;
6095;SDS011;25081;42.698;23.298;2022-12-07T01:26:39;41.98;;;21.82;;
6095;SDS011;25081;42.698;23.298;2022-12-07T01:28:50;29.52;;;20.45;;
6095;SDS011;25081;42.698;23.298;2022-12-07T01:31:00;35.65;;;21.82;;
6095;SDS011;25081;42.698;23.298;2022-12-07T01:33:11;45.43;;;25.57;;
6095;SDS011;25081;42.698;23.298;2022-12-07T01:35:21;46.63;;;26.15;;
6095;SDS011;25081;42.698;23.298;2022-12-07T01:37:34;47.30;;;25.65;;
6095;SDS011;25081;42.698;23.298;2022-12-07T01:39:45;52.58;;;30.00;;
6095;SDS011;25081;42.698;23.298;2022-12-07T01:41:58;44.88;;;26.73;;
6095;SDS011;25081;42.698;23.298;2022-12-07T01:44:16;43.05;;;24.55;;
6095;SDS011;25081;42.698;23.298;2022-12-07T01:46:26;47.98;;;26.00;;
6095;SDS011;25081;42.698;23.298;2022-12-07T01:48:38;42.98;;;26.07;;
6095;SDS011;25081;42.698;23.298;2022-12-07T01:50:48;39.85;;;24.55;;
6095;SDS011;25081;42.698;23.298;2022-12-07T01:52:58;38.88;;;25.30;;
6095;SDS011;25081;42.698;23.298;2022-12-07T01:55:09;39.18;;;23.47;;
6095;SDS011;25081;42.698;23.298;2022-12-07T01:57:19;46.77;;;25.75;;
6095;SDS011;25081;42.698;23.298;2022-12-07T01:59:29;42.65;;;25.17;;
6095;SDS011;25081;42.698;23.298;2022-12-07T02:01:40;43.10;;;26.42;;
6095;SDS011;25081;42.698;23.298;2022-12-07T02:03:50;37.55;;;23.07;;
6095;SDS011;25081;42.698;23.298;2022-12-07T02:06:01;42.80;;;23.90;;
6095;SDS011;25081;42.698;23.298;2022-12-07T02:08:11;48.13;;;25.65;;
6095;SDS011;25081;42.698;23.298;2022-12-07T02:10:23;36.48;;;23.12;;
6095;SDS011;25081;42.698;23.298;2022-12-07T02:12:34;36.40;;;25.08;;
6095;SDS011;25081;42.698;23.298;2022-12-07T02:14:44;40.65;;;24.50;;
6095;SDS011;25081;42.698;23.298;2022-12-07T02:16:58;34.85;;;23.05;;
6095;SDS011;25081;42.698;23.298;2022-12-07T02:19:24;40.60;;;25.68;;
6095;SDS011;25081;42.698;23.298;2022-12-07T02:21:48;41.33;;;24.47;;
6095;SDS011;25081;42.698;23.298;2022-12-07T02:24:13;44.95;;;24.77;;
6095;SDS011;25081;42.698;23.298;2022-12-07T02:29:18;47.50;;;28.02;;
6095;SDS011;25081;42.698;23.298;2022-12-07T02:31:30;48.00;;;26.20;;
6095;SDS011;25081;42.698;23.298;2022-12-07T02:33:41;44.95;;;28.50;;
6095;SDS011;25081;42.698;23.298;2022-12-07T02:35:53;43.30;;;28.40;;
6095;SDS011;25081;42.698;23.298;2022-12-07T02:38:03;46.75;;;26.00;;
6095;SDS011;25081;42.698;23.298;2022-12-07T02:40:14;41.37;;;27.00;;
6095;SDS011;25081;42.698;23.298;2022-12-07T02:42:25;46.15;;;28.77;;
6095;SDS011;25081;42.698;23.298;2022-12-07T02:44:35;48.60;;;30.32;;
6095;SDS011;25081;42.698;23.298;2022-12-07T02:46:47;42.25;;;26.40;;
6095;SDS011;25081;42.698;23.298;2022-12-07T02:48:56;41.63;;;26.42;;
6095;SDS011;25081;42.698;23.298;2022-12-07T02:51:07;38.33;;;25.90;;
6095;SDS011;25081;42.698;23.298;2022-12-07T02:53:34;41.50;;;26.07;;
6095;SDS011;25081;42.698;23.298;2022-12-07T02:55:44;47.93;;;26.10;;
6095;SDS011;25081;42.698;23.298;2022-12-07T02:57:56;41.20;;;25.45;;
6095;SDS011;25081;42.698;23.298;2022-12-07T03:00:24;37.23;;;23.83;;
6095;SDS011;25081;42.698;23.298;2022-12-07T03:02:42;47.10;;;25.10;;
6095;SDS011;25081;42.698;23.298;2022-12-07T03:04:52;40.43;;;23.80;;
6095;SDS011;25081;42.698;23.298;2022-12-07T03:07:05;54.23;;;28.00;;
6095;SDS011;25081;42.698;23.298;2022-12-07T03:09:14;40.12;;;26.00;;
6095;SDS011;25081;42.698;23.298;2022-12-07T03:11:25;45.60;;;25.40;;
6095;SDS011;25081;42.698;23.298;2022-12-07T03:13:37;44.93;;;26.25;;
6095;SDS011;25081;42.698;23.298;2022-12-07T03:15:48;45.20;;;28.07;;
6095;SDS011;25081;42.698;23.298;2022-12-07T03:17:57;60.00;;;34.60;;
6095;SDS011;25081;42.698;23.298;2022-12-07T03:20:09;46.95;;;27.75;;
6095;SDS011;25081;42.698;23.298;2022-12-07T03:22:19;40.55;;;25.70;;
6095;SDS011;25081;42.698;23.298;2022-12-07T03:24:31;46.08;;;26.48;;
6095;SDS011;25081;42.698;23.298;2022-12-07T03:26:42;49.95;;;27.73;;
6095;SDS011;25081;42.698;23.298;2022-12-07T03:28:52;45.58;;;28.10;;
6095;SDS011;25081;42.698;23.298;2022-12-07T03:31:03;58.28;;;29.18;;
6095;SDS011;25081;42.698;23.298;2022-12-07T03:33:13;55.20;;;29.00;;
6095;SDS011;25081;42.698;23.298;2022-12-07T03:35:24;52.50;;;27.82;;
6095;SDS011;25081;42.698;23.298;2022-12-07T03:37:35;47.10;;;29.18;;
6095;SDS011;25081;42.698;23.298;2022-12-07T03:39:46;43.60;;;26.65;;
6095;SDS011;25081;42.698;23.298;2022-12-07T03:41:56;45.83;;;28.20;;
6095;SDS011;25081;42.698;23.298;2022-12-07T03:44:06;45.45;;;27.32;;
6095;SDS011;25081;42.698;23.298;2022-12-07T03:46:19;48.95;;;26.50;;
6095;SDS011;25081;42.698;23.298;2022-12-07T03:48:31;49.55;;;27.27;;
6095;SDS011;25081;42.698;23.298;2022-12-07T03:50:42;42.58;;;25.05;;
6095;SDS011;25081;42.698;23.298;2022-12-07T03:52:53;51.23;;;28.45;;
6095;SDS011;25081;42.698;23.298;2022-12-07T03:55:04;49.90;;;30.57;;
6095;SDS011;25081;42.698;23.298;2022-12-07T03:57:14;49.27;;;27.42;;
6095;SDS011;25081;42.698;23.298;2022-12-07T03:59:25;39.63;;;24.57;;
6095;SDS011;25081;42.698;23.298;2022-12-07T04:01:35;48.68;;;27.00;;
6095;SDS011;25081;42.698;23.298;2022-12-07T04:03:46;43.65;;;26.12;;
6095;SDS011;25081;42.698;23.298;2022-12-07T04:05:56;42.73;;;24.65;;
6095;SDS011;25081;42.698;23.298;2022-12-07T04:08:07;46.70;;;26.77;;
6095;SDS011;25081;42.698;23.298;2022-12-07T04:10:17;44.53;;;25.17;;
6095;SDS011;25081;42.698;23.298;2022-12-07T04:12:28;47.08;;;25.70;;
6095;SDS011;25081;42.698;23.298;2022-12-07T04:14:38;41.95;;;24.25;;
6095;SDS011;25081;42.698;23.298;2022-12-07T04:16:49;37.85;;;24.37;;
6095;SDS011;25081;42.698;23.298;2022-12-07T04:18:59;42.93;;;25.43;;
6095;SDS011;25081;42.698;23.298;2022-12-07T04:21:09;44.42;;;24.80;;
6095;SDS011;25081;42.698;23.298;2022-12-07T04:23:20;39.27;;;23.98;;
6095;SDS011;25081;42.698;23.298;2022-12-07T04:25:30;47.98;;;26.02;;
6095;SDS011;25081;42.698;23.298;2022-12-07T04:27:41;43.80;;;25.00;;
6095;SDS011;25081;42.698;23.298;2022-12-07T04:29:51;45.03;;;26.33;;
6095;SDS011;25081;42.698;23.298;2022-12-07T04:32:02;41.30;;;23.75;;
6095;SDS011;25081;42.698;23.298;2022-12-07T04:34:12;41.37;;;26.37;;
6095;SDS011;25081;42.698;23.298;2022-12-07T04:36:23;51.83;;;30.70;;
6095;SDS011;25081;42.698;23.298;2022-12-07T04:38:33;45.50;;;27.73;;
6095;SDS011;25081;42.698;23.298;2022-12-07T04:40:44;44.30;;;26.10;;
6095;SDS011;25081;42.698;23.298;2022-12-07T04:42:54;43.35;;;24.40;;
6095;SDS011;25081;42.698;23.298;2022-12-07T04:45:06;47.33;;;26.17;;
6095;SDS011;25081;42.698;23.298;2022-12-07T04:47:17;47.13;;;28.55;;
6095;SDS011;25081;42.698;23.298;2022-12-07T04:49:28;46.77;;;26.15;;
6095;SDS011;25081;42.698;23.298;2022-12-07T04:51:38;41.95;;;27.13;;
6095;SDS011;25081;42.698;23.298;2022-12-07T04:53:49;47.50;;;26.40;;
6095;SDS011;25081;42.698;23.298;2022-12-07T04:55:59;68.12;;;26.70;;
6095;SDS011;25081;42.698;23.298;2022-12-07T04:58:10;49.48;;;28.27;;
6095;SDS011;25081;42.698;23.298;2022-12-07T05:00:21;47.45;;;27.70;;
6095;SDS011;25081;42.698;23.298;2022-12-07T05:02:31;49.15;;;28.50;;
6095;SDS011;25081;42.698;23.298;2022-12-07T05:04:42;49.50;;;28.85;;
6095;SDS011;25081;42.698;23.298;2022-12-07T05:06:52;59.70;;;30.15;;
6095;SDS011;25081;42.698;23.298;2022-12-07T05:09:03;48.55;;;26.75;;
6095;SDS011;25081;42.698;23.298;2022-12-07T05:11:13;46.42;;;27.70;;
6095;SDS011;25081;42.698;23.298;2022-12-07T05:13:25;49.70;;;28.27;;
6095;SDS011;25081;42.698;23.298;2022-12-07T05:15:36;51.25;;;28.62;;
6095;SDS011;25081;42.698;23.298;2022-12-07T05:17:46;49.15;;;26.77;;
6095;SDS011;25081;42.698;23.298;2022-12-07T05:19:57;52.23;;;28.30;;
6095;SDS011;25081;42.698;23.298;2022-12-07T05:22:07;50.05;;;28.07;;
6095;SDS011;25081;42.698;23.298;2022-12-07T05:24:18;46.08;;;27.32;;
6095;SDS011;25081;42.698;23.298;2022-12-07T05:26:28;45.08;;;28.42;;
6095;SDS011;25081;42.698;23.298;2022-12-07T05:28:39;59.08;;;26.85;;
6095;SDS011;25081;42.698;23.298;2022-12-07T05:30:49;50.48;;;31.15;;
6095;SDS011;25081;42.698;23.298;2022-12-07T05:33:00;59.55;;;27.90;;
6095;SDS011;25081;42.698;23.298;2022-12-07T05:35:10;54.42;;;30.20;;
6095;SDS011;25081;42.698;23.298;2022-12-07T05:37:21;51.00;;;32.70;;
6095;SDS011;25081;42.698;23.298;2022-12-07T05:39:31;56.98;;;33.98;;
6095;SDS011;25081;42.698;23.298;2022-12-07T05:41:41;60.83;;;37.20;;
6095;SDS011;25081;42.698;23.298;2022-12-07T05:44:10;63.75;;;37.55;;
6095;SDS011;25081;42.698;23.298;2022-12-07T05:46:21;60.28;;;36.20;;
6095;SDS011;25081;42.698;23.298;2022-12-07T05:48:31;63.20;;;39.18;;
6095;SDS011;25081;42.698;23.298;2022-12-07T05:50:42;59.20;;;35.88;;
6095;SDS011;25081;42.698;23.298;2022-12-07T05:52:52;53.10;;;32.98;;
6095;SDS011;25081;42.698;23.298;2022-12-07T05:55:03;52.53;;;32.20;;
6095;SDS011;25081;42.698;23.298;2022-12-07T05:57:14;47.03;;;26.52;;
6095;SDS011;25081;42.698;23.298;2022-12-07T05:59:25;38.50;;;25.08;;
6095;SDS011;25081;42.698;23.298;2022-12-07T06:01:35;53.15;;;27.93;;
6095;SDS011;25081;42.698;23.298;2022-12-07T06:03:45;53.90;;;26.82;;
6095;SDS011;25081;42.698;23.298;2022-12-07T06:05:56;52.48;;;27.67;;
6095;SDS011;25081;42.698;23.298;2022-12-07T06:08:06;45.78;;;24.50;;
6095;SDS011;25081;42.698;23.298;2022-12-07T06:10:17;53.20;;;26.02;;
6095;SDS011;25081;42.698;23.298;2022-12-07T06:12:28;43.33;;;25.27;;
6095;SDS011;25081;42.698;23.298;2022-12-07T06:14:44;52.33;;;26.57;;
6095;SDS011;25081;42.698;23.298;2022-12-07T06:16:54;44.33;;;24.07;;
6095;SDS011;25081;42.698;23.298;2022-12-07T06:19:05;40.20;;;22.90;;
6095;SDS011;25081;42.698;23.298;2022-12-07T06:21:15;43.78;;;26.30;;
6095;SDS011;25081;42.698;23.298;2022-12-07T06:23:26;45.03;;;25.40;;
6095;SDS011;25081;42.698;23.298;2022-12-07T06:25:36;47.48;;;25.80;;
6095;SDS011;25081;42.698;23.298;2022-12-07T06:27:47;41.10;;;23.60;;
6095;SDS011;25081;42.698;23.298;2022-12-07T06:29:57;52.78;;;23.95;;
6095;SDS011;25081;42.698;23.298;2022-12-07T06:32:08;47.85;;;23.67;;
6095;SDS011;25081;42.698;23.298;2022-12-07T06:34:19;38.13;;;23.85;;
6095;SDS011;25081;42.698;23.298;2022-12-07T06:36:29;41.90;;;25.40;;
6095;SDS011;25081;42.698;23.298;2022-12-07T06:38:39;43.48;;;26.27;;
6095;SDS011;25081;42.698;23.298;2022-12-07T06:40:50;46.33;;;27.90;;
6095;SDS011;25081;42.698;23.298;2022-12-07T06:43:00;47.40;;;26.75;;
6095;SDS011;25081;42.698;23.298;2022-12-07T06:45:11;47.70;;;27.73;;
6095;SDS011;25081;42.698;23.298;2022-12-07T06:47:22;44.77;;;28.80;;
6095;SDS011;25081;42.698;23.298;2022-12-07T06:49:33;47.48;;;27.00;;
6095;SDS011;25081;42.698;23.298;2022-12-07T06:51:43;42.35;;;27.32;;
6095;SDS011;25081;42.698;23.298;2022-12-07T06:53:53;44.83;;;28.05;;
6095;SDS011;25081;42.698;23.298;2022-12-07T06:56:05;41.85;;;24.82;;
6095;SDS011;25081;42.698;23.298;2022-12-07T06:58:16;51.63;;;27.42;;
6095;SDS011;25081;42.698;23.298;2022-12-07T07:00:26;41.02;;;26.37;;
6095;SDS011;25081;42.698;23.298;2022-12-07T07:02:36;45.28;;;28.23;;
6095;SDS011;25081;42.698;23.298;2022-12-07T07:04:47;52.13;;;32.08;;
6095;SDS011;25081;42.698;23.298;2022-12-07T07:06:57;58.42;;;34.18;;
6095;SDS011;25081;42.698;23.298;2022-12-07T07:09:08;54.95;;;34.55;;
6095;SDS011;25081;42.698;23.298;2022-12-07T07:11:18;57.27;;;34.30;;
6095;SDS011;25081;42.698;23.298;2022-12-07T07:13:29;59.15;;;33.30;;
6095;SDS011;25081;42.698;23.298;2022-12-07T07:15:39;52.62;;;33.00;;
6095;SDS011;25081;42.698;23.298;2022-12-07T07:17:50;54.20;;;31.75;;
6095;SDS011;25081;42.698;23.298;2022-12-07T07:20:01;60.38;;;33.45;;
6095;SDS011;25081;42.698;23.298;2022-12-07T07:22:11;55.58;;;30.48;;
6095;SDS011;25081;42.698;23.298;2022-12-07T07:24:22;54.88;;;32.17;;
6095;SDS011;25081;42.698;23.298;2022-12-07T07:26:32;53.28;;;32.42;;
6095;SDS011;25081;42.698;23.298;2022-12-07T07:28:43;51.98;;;30.27;;
6095;SDS011;25081;42.698;23.298;2022-12-07T07:30:53;55.67;;;30.55;;
6095;SDS011;25081;42.698;23.298;2022-12-07T07:33:04;51.80;;;31.50;;
6095;SDS011;25081;42.698;23.298;2022-12-07T07:35:15;53.58;;;28.62;;
6095;SDS011;25081;42.698;23.298;2022-12-07T07:37:25;48.92;;;28.40;;
6095;SDS011;25081;42.698;23.298;2022-12-07T07:39:36;50.88;;;30.30;;
6095;SDS011;25081;42.698;23.298;2022-12-07T07:41:46;43.68;;;28.07;;
6095;SDS011;25081;42.698;23.298;2022-12-07T07:43:57;43.90;;;26.37;;
6095;SDS011;25081;42.698;23.298;2022-12-07T07:46:07;49.90;;;26.93;;
6095;SDS011;25081;42.698;23.298;2022-12-07T07:48:18;49.58;;;28.83;;
6095;SDS011;25081;42.698;23.298;2022-12-07T07:50:28;40.83;;;26.20;;
6095;SDS011;25081;42.698;23.298;2022-12-07T07:52:39;40.73;;;28.05;;
6095;SDS011;25081;42.698;23.298;2022-12-07T07:54:49;50.48;;;26.75;;
6095;SDS011;25081;42.698;23.298;2022-12-07T07:57:00;37.85;;;25.85;;
6095;SDS011;25081;42.698;23.298;2022-12-07T07:59:10;46.30;;;28.80;;
6095;SDS011;25081;42.698;23.298;2022-12-07T08:01:21;47.62;;;25.88;;
6095;SDS011;25081;42.698;23.298;2022-12-07T08:03:31;42.65;;;25.75;;
6095;SDS011;25081;42.698;23.298;2022-12-07T08:05:42;58.70;;;28.62;;
6095;SDS011;25081;42.698;23.298;2022-12-07T08:07:52;40.43;;;27.32;;
6095;SDS011;25081;42.698;23.298;2022-12-07T08:10:03;40.30;;;26.77;;
6095;SDS011;25081;42.698;23.298;2022-12-07T08:12:15;47.62;;;29.12;;
6095;SDS011;25081;42.698;23.298;2022-12-07T08:14:25;53.08;;;29.07;;
6095;SDS011;25081;42.698;23.298;2022-12-07T08:16:36;46.48;;;28.77;;
6095;SDS011;25081;42.698;23.298;2022-12-07T08:18:47;54.70;;;30.80;;
6095;SDS011;25081;42.698;23.298;2022-12-07T08:20:59;53.35;;;31.20;;
6095;SDS011;25081;42.698;23.298;2022-12-07T08:23:10;47.65;;;32.05;;
6095;SDS011;25081;42.698;23.298;2022-12-07T08:25:20;45.95;;;30.35;;
6095;SDS011;25081;42.698;23.298;2022-12-07T08:27:30;45.08;;;29.12;;
6095;SDS011;25081;42.698;23.298;2022-12-07T08:29:41;44.40;;;28.30;;
6095;SDS011;25081;42.698;23.298;2022-12-07T08:31:51;45.50;;;27.43;;
6095;SDS011;25081;42.698;23.298;2022-12-07T08:34:02;53.33;;;28.93;;
6095;SDS011;25081;42.698;23.298;2022-12-07T08:36:12;44.07;;;27.60;;
6095;SDS011;25081;42.698;23.298;2022-12-07T08:38:23;41.20;;;26.50;;
6095;SDS011;25081;42.698;23.298;2022-12-07T08:40:33;51.30;;;29.30;;
6095;SDS011;25081;42.698;23.298;2022-12-07T08:42:44;46.70;;;28.67;;
6095;SDS011;25081;42.698;23.298;2022-12-07T08:44:54;54.27;;;31.80;;
6095;SDS011;25081;42.698;23.298;2022-12-07T08:47:05;47.77;;;30.10;;
6095;SDS011;25081;42.698;23.298;2022-12-07T08:49:16;45.03;;;29.97;;
6095;SDS011;25081;42.698;23.298;2022-12-07T08:51:26;47.63;;;31.97;;
6095;SDS011;25081;42.698;23.298;2022-12-07T08:53:37;47.47;;;32.93;;
6095;SDS011;25081;42.698;23.298;2022-12-07T08:55:48;45.53;;;31.10;;
6095;SDS011;25081;42.698;23.298;2022-12-07T08:57:58;45.13;;;30.27;;
6095;SDS011;25081;42.698;23.298;2022-12-07T09:00:09;58.13;;;33.53;;
6095;SDS011;25081;42.698;23.298;2022-12-07T09:02:21;47.20;;;31.30;;
6095;SDS011;25081;42.698;23.298;2022-12-07T09:04:31;50.00;;;32.50;;
6095;SDS011;25081;42.698;23.298;2022-12-07T09:06:42;60.00;;;31.57;;
6095;SDS011;25081;42.698;23.298;2022-12-07T09:08:53;57.57;;;36.07;;
6095;SDS011;25081;42.698;23.298;2022-12-07T09:11:03;55.37;;;36.20;;
6095;SDS011;25081;42.698;23.298;2022-12-07T09:13:14;58.17;;;34.17;;
6095;SDS011;25081;42.698;23.298;2022-12-07T09:15:25;55.37;;;34.90;;
6095;SDS011;25081;42.698;23.298;2022-12-07T09:17:35;54.63;;;35.58;;
6095;SDS011;25081;42.698;23.298;2022-12-07T09:19:46;55.67;;;35.73;;
6095;SDS011;25081;42.698;23.298;2022-12-07T09:21:56;61.35;;;37.98;;
6095;SDS011;25081;42.698;23.298;2022-12-07T09:24:07;63.20;;;36.25;;
6095;SDS011;25081;42.698;23.298;2022-12-07T09:26:18;58.50;;;35.92;;
6095;SDS011;25081;42.698;23.298;2022-12-07T09:28:28;62.88;;;36.75;;
6095;SDS011;25081;42.698;23.298;2022-12-07T09:30:39;63.13;;;36.85;;
6095;SDS011;25081;42.698;23.298;2022-12-07T09:32:49;58.60;;;35.20;;
6095;SDS011;25081;42.698;23.298;2022-12-07T09:35:00;67.37;;;35.40;;
6095;SDS011;25081;42.698;23.298;2022-12-07T09:37:10;59.20;;;37.00;;
6095;SDS011;25081;42.698;23.298;2022-12-07T09:39:21;55.98;;;34.35;;
6095;SDS011;25081;42.698;23.298;2022-12-07T09:41:31;59.38;;;35.25;;
6095;SDS011;25081;42.698;23.298;2022-12-07T09:43:41;61.58;;;33.83;;
6095;SDS011;25081;42.698;23.298;2022-12-07T09:45:53;52.75;;;31.17;;
6095;SDS011;25081;42.698;23.298;2022-12-07T09:48:03;42.90;;;23.98;;
6095;SDS011;25081;42.698;23.298;2022-12-07T09:50:15;43.38;;;25.72;;
6095;SDS011;25081;42.698;23.298;2022-12-07T09:52:26;42.98;;;25.92;;
6095;SDS011;25081;42.698;23.298;2022-12-07T09:54:36;47.43;;;26.30;;
6095;SDS011;25081;42.698;23.298;2022-12-07T09:56:46;46.58;;;26.37;;
6095;SDS011;25081;42.698;23.298;2022-12-07T09:58:58;43.48;;;24.10;;
6095;SDS011;25081;42.698;23.298;2022-12-07T10:01:11;37.95;;;25.40;;
6095;SDS011;25081;42.698;23.298;2022-12-07T10:03:20;45.12;;;25.15;;
6095;SDS011;25081;42.698;23.298;2022-12-07T10:05:32;53.87;;;27.27;;
6095;SDS011;25081;42.698;23.298;2022-12-07T10:07:42;41.63;;;26.05;;
6095;SDS011;25081;42.698;23.298;2022-12-07T10:09:52;42.93;;;24.63;;
6095;SDS011;25081;42.698;23.298;2022-12-07T10:12:04;45.80;;;26.20;;
6095;SDS011;25081;42.698;23.298;2022-12-07T10:14:15;42.80;;;25.88;;
6095;SDS011;25081;42.698;23.298;2022-12-07T10:16:32;42.65;;;24.98;;
6095;SDS011;25081;42.698;23.298;2022-12-07T10:18:42;45.55;;;26.05;;
6095;SDS011;25081;42.698;23.298;2022-12-07T10:21:01;41.20;;;25.30;;
6095;SDS011;25081;42.698;23.298;2022-12-07T10:23:14;43.40;;;27.30;;
6095;SDS011;25081;42.698;23.298;2022-12-07T10:25:25;40.37;;;25.90;;
6095;SDS011;25081;42.698;23.298;2022-12-07T10:27:35;40.12;;;24.43;;
6095;SDS011;25081;42.698;23.298;2022-12-07T10:29:47;42.70;;;25.20;;
6095;SDS011;25081;42.698;23.298;2022-12-07T10:31:59;38.67;;;24.35;;
6095;SDS011;25081;42.698;23.298;2022-12-07T10:34:14;43.00;;;24.40;;
6095;SDS011;25081;42.698;23.298;2022-12-07T10:36:26;37.53;;;24.90;;
6095;SDS011;25081;42.698;23.298;2022-12-07T10:38:35;41.35;;;24.98;;
6095;SDS011;25081;42.698;23.298;2022-12-07T10:40:46;44.90;;;26.75;;
6095;SDS011;25081;42.698;23.298;2022-12-07T10:43:02;44.25;;;25.10;;
6095;SDS011;25081;42.698;23.298;2022-12-07T10:45:14;42.13;;;27.25;;
6095;SDS011;25081;42.698;23.298;2022-12-07T10:47:31;45.50;;;23.35;;
6095;SDS011;25081;42.698;23.298;2022-12-07T10:52:34;42.13;;;24.47;;
6095;SDS011;25081;42.698;23.298;2022-12-07T10:54:48;47.80;;;27.10;;
6095;SDS011;25081;42.698;23.298;2022-12-07T10:57:02;51.48;;;26.42;;
6095;SDS011;25081;42.698;23.298;2022-12-07T10:59:35;44.23;;;25.55;;
6095;SDS011;25081;42.698;23.298;2022-12-07T11:01:50;42.85;;;26.27;;
6095;SDS011;25081;42.698;23.298;2022-12-07T11:04:20;46.28;;;26.00;;
6095;SDS011;25081;42.698;23.298;2022-12-07T11:06:33;48.63;;;29.00;;
6095;SDS011;25081;42.698;23.298;2022-12-07T11:08:47;43.37;;;25.57;;
6095;SDS011;25081;42.698;23.298;2022-12-07T11:10:59;40.80;;;25.83;;
6095;SDS011;25081;42.698;23.298;2022-12-07T11:13:18;39.00;;;24.17;;
6095;SDS011;25081;42.698;23.298;2022-12-07T11:15:36;44.30;;;27.13;;
6095;SDS011;25081;42.698;23.298;2022-12-07T11:17:48;35.60;;;24.30;;
6095;SDS011;25081;42.698;23.298;2022-12-07T11:20:03;39.03;;;21.40;;
6095;SDS011;25081;42.698;23.298;2022-12-07T11:22:14;38.90;;;24.90;;
6095;SDS011;25081;42.698;23.298;2022-12-07T11:24:24;42.00;;;25.90;;
6095;SDS011;25081;42.698;23.298;2022-12-07T11:26:38;41.20;;;27.90;;
6095;SDS011;25081;42.698;23.298;2022-12-07T11:28:56;41.57;;;25.97;;
6095;SDS011;25081;42.698;23.298;2022-12-07T11:31:12;40.13;;;24.87;;
6095;SDS011;25081;42.698;23.298;2022-12-07T11:33:25;37.53;;;23.90;;
6095;SDS011;25081;42.698;23.298;2022-12-07T11:35:38;33.92;;;18.40;;
6095;SDS011;25081;42.698;23.298;2022-12-07T11:37:51;23.98;;;14.80;;
6095;SDS011;25081;42.698;23.298;2022-12-07T11:40:03;25.57;;;16.00;;
6095;SDS011;25081;42.698;23.298;2022-12-07T11:42:14;32.55;;;20.92;;
6095;SDS011;25081;42.698;23.298;2022-12-07T11:44:26;38.95;;;21.23;;
6095;SDS011;25081;42.698;23.298;2022-12-07T11:46:40;35.15;;;18.55;;
6095;SDS011;25081;42.698;23.298;2022-12-07T11:48:55;25.00;;;13.50;;
6095;SDS011;25081;42.698;23.298;2022-12-07T11:51:06;32.42;;;19.40;;
6095;SDS011;25081;42.698;23.298;2022-12-07T11:53:17;37.27;;;17.43;;
6095;SDS011;25081;42.698;23.298;2022-12-07T11:55:30;32.73;;;20.00;;
6095;SDS011;25081;42.698;23.298;2022-12-07T11:57:41;30.52;;;18.10;;
6095;SDS011;25081;42.698;23.298;2022-12-07T11:59:51;30.85;;;19.82;;
6095;SDS011;25081;42.698;23.298;2022-12-07T12:02:03;36.70;;;20.62;;
6095;SDS011;25081;42.698;23.298;2022-12-07T12:04:16;33.10;;;20.10;;
6095;SDS011;25081;42.698;23.298;2022-12-07T12:06:28;36.68;;;21.33;;
6095;SDS011;25081;42.698;23.298;2022-12-07T12:08:40;40.55;;;22.60;;
6095;SDS011;25081;42.698;23.298;2022-12-07T12:10:53;35.63;;;21.43;;
6095;SDS011;25081;42.698;23.298;2022-12-07T12:13:08;37.25;;;23.60;;
6095;SDS011;25081;42.698;23.298;2022-12-07T12:15:26;35.07;;;23.07;;
6095;SDS011;25081;42.698;23.298;2022-12-07T12:17:41;34.63;;;21.97;;
6095;SDS011;25081;42.698;23.298;2022-12-07T12:20:03;39.50;;;20.03;;
6095;SDS011;25081;42.698;23.298;2022-12-07T12:22:15;33.83;;;21.13;;
6095;SDS011;25081;42.698;23.298;2022-12-07T12:24:26;35.00;;;22.40;;
6095;SDS011;25081;42.698;23.298;2022-12-07T12:26:36;31.10;;;21.10;;
6095;SDS011;25081;42.698;23.298;2022-12-07T12:28:50;28.60;;;18.93;;
6095;SDS011;25081;42.698;23.298;2022-12-07T12:31:08;30.93;;;20.23;;
6095;SDS011;25081;42.698;23.298;2022-12-07T12:33:19;32.40;;;20.03;;
6095;SDS011;25081;42.698;23.298;2022-12-07T12:35:31;28.07;;;18.20;;
6095;SDS011;25081;42.698;23.298;2022-12-07T12:37:44;33.57;;;19.80;;
6095;SDS011;25081;42.698;23.298;2022-12-07T12:42:44;29.80;;;18.50;;
6095;SDS011;25081;42.698;23.298;2022-12-07T12:45:04;30.83;;;19.17;;
6095;SDS011;25081;42.698;23.298;2022-12-07T12:47:41;27.23;;;17.57;;
6095;SDS011;25081;42.698;23.298;2022-12-07T12:50:12;29.23;;;16.97;;
6095;SDS011;25081;42.698;23.298;2022-12-07T12:55:13;28.20;;;15.53;;
6095;SDS011;25081;42.698;23.298;2022-12-07T12:57:26;22.60;;;15.30;;
6095;SDS011;25081;42.698;23.298;2022-12-07T12:59:36;26.30;;;16.00;;
6095;SDS011;25081;42.698;23.298;2022-12-07T13:01:47;29.53;;;16.23;;